sensor_id;sensor_type;location;lat;lon;timestamp;P1;durP1;ratioP1;P2;durP2;ratioP2
11608;SDS011;5860;52.018;8.536;2023-05-20T00:00:45;2.57;;;1.77;;
11608;SDS011;5860;52.018;8.536;2023-05-20T00:03:15;2.50;;;1.70;;
11608;SDS011;5860;52.018;8.536;2023-05-20T00:05:43;4.17;;;1.53;;
11608;SDS011;5860;52.018;8.536;2023-05-20T00:08:10;4.13;;;1.80;;
11608;SDS011;5860;52.018;8.536;2023-05-20T00:10:37;4.10;;;2.03;;
11608;SDS011;5860;52.018;8.536;2023-05-20T00:13:04;4.13;;;2.00;;
11608;SDS011;5860;52.018;8.536;2023-05-20T00:15:32;4.07;;;1.90;;
11608;SDS011;5860;52.018;8.536;2023-05-20T00:18:00;2.20;;;1.50;;
11608;SDS011;5860;52.018;8.536;2023-05-20T00:20:28;2.27;;;1.80;;
11608;SDS011;5860;52.018;8.536;2023-05-20T00:22:55;4.20;;;2.17;;
11608;SDS011;5860;52.018;8.536;2023-05-20T00:25:22;3.80;;;2.00;;
11608;SDS011;5860;52.018;8.536;2023-05-20T00:27:49;3.10;;;2.00;;
11608;SDS011;5860;52.018;8.536;2023-05-20T00:30:16;3.23;;;1.90;;
11608;SDS011;5860;52.018;8.536;2023-05-20T00:32:43;4.83;;;1.83;;
11608;SDS011;5860;52.018;8.536;2023-05-20T00:35:10;3.43;;;1.93;;
11608;SDS011;5860;52.018;8.536;2023-05-20T00:37:38;3.60;;;1.80;;
11608;SDS011;5860;52.018;8.536;2023-05-20T00:40:06;4.47;;;1.93;;
11608;SDS011;5860;52.018;8.536;2023-05-20T00:42:33;2.80;;;1.80;;
11608;SDS011;5860;52.018;8.536;2023-05-20T00:45:00;3.67;;;1.93;;
11608;SDS011;5860;52.018;8.536;2023-05-20T00:47:28;2.80;;;1.60;;
11608;SDS011;5860;52.018;8.536;2023-05-20T00:49:58;3.20;;;1.87;;
11608;SDS011;5860;52.018;8.536;2023-05-20T00:52:26;3.03;;;1.83;;
11608;SDS011;5860;52.018;8.536;2023-05-20T00:54:56;4.57;;;2.00;;
11608;SDS011;5860;52.018;8.536;2023-05-20T00:57:24;3.00;;;1.83;;
11608;SDS011;5860;52.018;8.536;2023-05-20T00:59:51;7.37;;;1.90;;
11608;SDS011;5860;52.018;8.536;2023-05-20T01:02:19;3.60;;;1.80;;
11608;SDS011;5860;52.018;8.536;2023-05-20T01:04:46;4.03;;;2.00;;
11608;SDS011;5860;52.018;8.536;2023-05-20T01:07:14;7.97;;;2.10;;
11608;SDS011;5860;52.018;8.536;2023-05-20T01:09:42;3.73;;;1.70;;
11608;SDS011;5860;52.018;8.536;2023-05-20T01:14:47;5.80;;;1.90;;
11608;SDS011;5860;52.018;8.536;2023-05-20T01:17:16;3.07;;;1.97;;
11608;SDS011;5860;52.018;8.536;2023-05-20T01:19:46;3.80;;;2.00;;
11608;SDS011;5860;52.018;8.536;2023-05-20T01:22:14;3.47;;;1.60;;
11608;SDS011;5860;52.018;8.536;2023-05-20T01:24:42;4.43;;;1.90;;
11608;SDS011;5860;52.018;8.536;2023-05-20T01:27:11;3.67;;;1.70;;
11608;SDS011;5860;52.018;8.536;2023-05-20T01:29:39;6.73;;;2.10;;
11608;SDS011;5860;52.018;8.536;2023-05-20T01:35:03;3.73;;;2.00;;
11608;SDS011;5860;52.018;8.536;2023-05-20T01:37:31;3.47;;;2.10;;
11608;SDS011;5860;52.018;8.536;2023-05-20T01:40:06;3.50;;;2.00;;
11608;SDS011;5860;52.018;8.536;2023-05-20T01:42:34;3.87;;;1.97;;
11608;SDS011;5860;52.018;8.536;2023-05-20T01:45:02;4.13;;;2.07;;
11608;SDS011;5860;52.018;8.536;2023-05-20T01:47:30;4.53;;;2.00;;
11608;SDS011;5860;52.018;8.536;2023-05-20T01:49:57;2.27;;;1.80;;
11608;SDS011;5860;52.018;8.536;2023-05-20T01:52:24;3.40;;;1.93;;
11608;SDS011;5860;52.018;8.536;2023-05-20T01:54:51;3.47;;;1.87;;
11608;SDS011;5860;52.018;8.536;2023-05-20T01:57:19;6.03;;;1.70;;
11608;SDS011;5860;52.018;8.536;2023-05-20T01:59:47;4.70;;;1.87;;
11608;SDS011;5860;52.018;8.536;2023-05-20T02:02:14;3.47;;;2.17;;
11608;SDS011;5860;52.018;8.536;2023-05-20T02:04:42;3.00;;;1.93;;
11608;SDS011;5860;52.018;8.536;2023-05-20T02:07:16;2.80;;;2.10;;
11608;SDS011;5860;52.018;8.536;2023-05-20T02:09:46;3.27;;;2.00;;
11608;SDS011;5860;52.018;8.536;2023-05-20T02:12:14;2.47;;;1.90;;
11608;SDS011;5860;52.018;8.536;2023-05-20T02:14:42;4.23;;;2.03;;
11608;SDS011;5860;52.018;8.536;2023-05-20T02:17:11;4.87;;;2.10;;
11608;SDS011;5860;52.018;8.536;2023-05-20T02:19:42;4.23;;;1.90;;
11608;SDS011;5860;52.018;8.536;2023-05-20T02:22:10;3.20;;;1.70;;
11608;SDS011;5860;52.018;8.536;2023-05-20T02:24:37;7.13;;;1.70;;
11608;SDS011;5860;52.018;8.536;2023-05-20T02:27:05;2.53;;;1.83;;
11608;SDS011;5860;52.018;8.536;2023-05-20T02:29:32;5.10;;;1.70;;
11608;SDS011;5860;52.018;8.536;2023-05-20T02:31:59;2.70;;;2.17;;
11608;SDS011;5860;52.018;8.536;2023-05-20T02:34:26;3.93;;;1.90;;
11608;SDS011;5860;52.018;8.536;2023-05-20T02:36:55;6.37;;;1.80;;
11608;SDS011;5860;52.018;8.536;2023-05-20T02:39:22;3.13;;;1.80;;
11608;SDS011;5860;52.018;8.536;2023-05-20T02:41:49;6.50;;;2.37;;
11608;SDS011;5860;52.018;8.536;2023-05-20T02:44:16;4.20;;;2.10;;
11608;SDS011;5860;52.018;8.536;2023-05-20T02:46:43;3.07;;;1.97;;
11608;SDS011;5860;52.018;8.536;2023-05-20T02:49:10;5.53;;;2.10;;
11608;SDS011;5860;52.018;8.536;2023-05-20T02:51:37;7.50;;;2.03;;
11608;SDS011;5860;52.018;8.536;2023-05-20T02:54:05;3.97;;;2.07;;
11608;SDS011;5860;52.018;8.536;2023-05-20T02:56:32;5.33;;;2.10;;
11608;SDS011;5860;52.018;8.536;2023-05-20T02:58:59;4.57;;;2.23;;
11608;SDS011;5860;52.018;8.536;2023-05-20T03:01:26;2.57;;;1.87;;
11608;SDS011;5860;52.018;8.536;2023-05-20T03:03:54;4.63;;;2.20;;
11608;SDS011;5860;52.018;8.536;2023-05-20T03:06:21;3.67;;;2.17;;
11608;SDS011;5860;52.018;8.536;2023-05-20T03:08:48;2.70;;;1.93;;
11608;SDS011;5860;52.018;8.536;2023-05-20T03:11:15;3.17;;;1.90;;
11608;SDS011;5860;52.018;8.536;2023-05-20T03:13:42;2.80;;;1.90;;
11608;SDS011;5860;52.018;8.536;2023-05-20T03:16:09;7.47;;;2.17;;
11608;SDS011;5860;52.018;8.536;2023-05-20T03:18:38;4.27;;;2.37;;
11608;SDS011;5860;52.018;8.536;2023-05-20T03:21:06;5.57;;;2.00;;
11608;SDS011;5860;52.018;8.536;2023-05-20T03:23:33;4.33;;;2.37;;
11608;SDS011;5860;52.018;8.536;2023-05-20T03:26:00;3.63;;;2.40;;
11608;SDS011;5860;52.018;8.536;2023-05-20T03:28:28;3.03;;;2.00;;
11608;SDS011;5860;52.018;8.536;2023-05-20T03:30:55;2.83;;;2.00;;
11608;SDS011;5860;52.018;8.536;2023-05-20T03:33:22;3.33;;;1.90;;
11608;SDS011;5860;52.018;8.536;2023-05-20T03:35:51;6.87;;;2.10;;
11608;SDS011;5860;52.018;8.536;2023-05-20T03:38:18;4.00;;;2.37;;
11608;SDS011;5860;52.018;8.536;2023-05-20T03:40:45;4.30;;;2.07;;
11608;SDS011;5860;52.018;8.536;2023-05-20T03:43:12;3.37;;;2.03;;
11608;SDS011;5860;52.018;8.536;2023-05-20T03:45:39;4.87;;;2.37;;
11608;SDS011;5860;52.018;8.536;2023-05-20T03:48:06;5.10;;;1.93;;
11608;SDS011;5860;52.018;8.536;2023-05-20T03:50:33;4.37;;;2.17;;
11608;SDS011;5860;52.018;8.536;2023-05-20T03:53:00;3.40;;;2.00;;
11608;SDS011;5860;52.018;8.536;2023-05-20T03:55:27;2.87;;;2.30;;
11608;SDS011;5860;52.018;8.536;2023-05-20T03:57:54;5.33;;;2.47;;
11608;SDS011;5860;52.018;8.536;2023-05-20T04:00:22;3.70;;;1.93;;
11608;SDS011;5860;52.018;8.536;2023-05-20T04:02:49;4.97;;;1.90;;
11608;SDS011;5860;52.018;8.536;2023-05-20T04:05:16;2.63;;;1.90;;
11608;SDS011;5860;52.018;8.536;2023-05-20T04:07:43;2.60;;;2.00;;
11608;SDS011;5860;52.018;8.536;2023-05-20T04:10:10;3.80;;;2.03;;
11608;SDS011;5860;52.018;8.536;2023-05-20T04:12:38;3.17;;;2.17;;
11608;SDS011;5860;52.018;8.536;2023-05-20T04:15:05;2.57;;;1.83;;
11608;SDS011;5860;52.018;8.536;2023-05-20T04:17:32;2.97;;;1.93;;
11608;SDS011;5860;52.018;8.536;2023-05-20T04:20:02;3.90;;;2.20;;
11608;SDS011;5860;52.018;8.536;2023-05-20T04:22:33;3.00;;;2.30;;
11608;SDS011;5860;52.018;8.536;2023-05-20T04:25:00;7.20;;;2.40;;
11608;SDS011;5860;52.018;8.536;2023-05-20T04:27:28;4.67;;;2.00;;
11608;SDS011;5860;52.018;8.536;2023-05-20T04:29:56;5.23;;;2.37;;
11608;SDS011;5860;52.018;8.536;2023-05-20T04:32:24;3.30;;;2.20;;
11608;SDS011;5860;52.018;8.536;2023-05-20T04:34:52;4.63;;;2.27;;
11608;SDS011;5860;52.018;8.536;2023-05-20T04:37:21;3.53;;;2.10;;
11608;SDS011;5860;52.018;8.536;2023-05-20T04:39:48;2.70;;;2.10;;
11608;SDS011;5860;52.018;8.536;2023-05-20T04:42:16;2.93;;;2.10;;
11608;SDS011;5860;52.018;8.536;2023-05-20T04:44:44;2.70;;;2.10;;
11608;SDS011;5860;52.018;8.536;2023-05-20T04:47:11;5.00;;;2.30;;
11608;SDS011;5860;52.018;8.536;2023-05-20T04:49:39;2.90;;;2.00;;
11608;SDS011;5860;52.018;8.536;2023-05-20T04:52:06;4.10;;;2.40;;
11608;SDS011;5860;52.018;8.536;2023-05-20T04:54:33;4.27;;;2.50;;
11608;SDS011;5860;52.018;8.536;2023-05-20T04:57:00;3.80;;;2.20;;
11608;SDS011;5860;52.018;8.536;2023-05-20T04:59:28;3.87;;;2.20;;
11608;SDS011;5860;52.018;8.536;2023-05-20T05:01:57;5.10;;;2.33;;
11608;SDS011;5860;52.018;8.536;2023-05-20T05:04:25;3.20;;;2.10;;
11608;SDS011;5860;52.018;8.536;2023-05-20T05:06:51;3.37;;;2.30;;
11608;SDS011;5860;52.018;8.536;2023-05-20T05:09:18;2.97;;;2.07;;
11608;SDS011;5860;52.018;8.536;2023-05-20T05:11:45;3.07;;;2.30;;
11608;SDS011;5860;52.018;8.536;2023-05-20T05:14:12;2.53;;;2.30;;
11608;SDS011;5860;52.018;8.536;2023-05-20T05:16:39;2.20;;;2.00;;
11608;SDS011;5860;52.018;8.536;2023-05-20T05:19:06;4.00;;;2.00;;
11608;SDS011;5860;52.018;8.536;2023-05-20T05:21:34;3.67;;;2.10;;
11608;SDS011;5860;52.018;8.536;2023-05-20T05:24:01;3.00;;;2.30;;
11608;SDS011;5860;52.018;8.536;2023-05-20T05:26:28;2.80;;;2.10;;
11608;SDS011;5860;52.018;8.536;2023-05-20T05:28:55;2.40;;;2.13;;
11608;SDS011;5860;52.018;8.536;2023-05-20T05:31:22;3.00;;;2.07;;
11608;SDS011;5860;52.018;8.536;2023-05-20T05:33:49;3.13;;;2.23;;
11608;SDS011;5860;52.018;8.536;2023-05-20T05:36:16;4.27;;;2.50;;
11608;SDS011;5860;52.018;8.536;2023-05-20T05:38:43;4.17;;;2.27;;
11608;SDS011;5860;52.018;8.536;2023-05-20T05:41:10;6.27;;;2.40;;
11608;SDS011;5860;52.018;8.536;2023-05-20T05:43:37;6.17;;;2.40;;
11608;SDS011;5860;52.018;8.536;2023-05-20T05:46:04;4.63;;;2.53;;
11608;SDS011;5860;52.018;8.536;2023-05-20T05:48:31;3.47;;;2.50;;
11608;SDS011;5860;52.018;8.536;2023-05-20T05:50:59;4.70;;;2.50;;
11608;SDS011;5860;52.018;8.536;2023-05-20T05:53:25;2.87;;;2.40;;
11608;SDS011;5860;52.018;8.536;2023-05-20T05:55:55;5.40;;;2.40;;
11608;SDS011;5860;52.018;8.536;2023-05-20T05:58:22;3.00;;;2.40;;
11608;SDS011;5860;52.018;8.536;2023-05-20T06:00:52;4.97;;;2.33;;
11608;SDS011;5860;52.018;8.536;2023-05-20T06:03:20;4.27;;;2.13;;
11608;SDS011;5860;52.018;8.536;2023-05-20T06:05:47;2.77;;;2.23;;
11608;SDS011;5860;52.018;8.536;2023-05-20T06:08:14;4.07;;;2.93;;
11608;SDS011;5860;52.018;8.536;2023-05-20T06:10:45;2.77;;;2.30;;
11608;SDS011;5860;52.018;8.536;2023-05-20T06:13:14;3.67;;;2.50;;
11608;SDS011;5860;52.018;8.536;2023-05-20T06:15:41;4.23;;;2.20;;
11608;SDS011;5860;52.018;8.536;2023-05-20T06:18:08;3.40;;;2.30;;
11608;SDS011;5860;52.018;8.536;2023-05-20T06:20:35;5.43;;;2.47;;
11608;SDS011;5860;52.018;8.536;2023-05-20T06:23:02;4.47;;;2.30;;
11608;SDS011;5860;52.018;8.536;2023-05-20T06:25:29;5.67;;;2.63;;
11608;SDS011;5860;52.018;8.536;2023-05-20T06:27:56;4.93;;;2.40;;
11608;SDS011;5860;52.018;8.536;2023-05-20T06:30:23;3.40;;;2.53;;
11608;SDS011;5860;52.018;8.536;2023-05-20T06:32:50;5.40;;;2.50;;
11608;SDS011;5860;52.018;8.536;2023-05-20T06:35:17;4.30;;;2.50;;
11608;SDS011;5860;52.018;8.536;2023-05-20T06:37:44;4.53;;;2.67;;
11608;SDS011;5860;52.018;8.536;2023-05-20T06:40:11;3.33;;;2.47;;
11608;SDS011;5860;52.018;8.536;2023-05-20T06:42:38;3.37;;;2.33;;
11608;SDS011;5860;52.018;8.536;2023-05-20T06:45:05;3.80;;;2.43;;
11608;SDS011;5860;52.018;8.536;2023-05-20T06:47:33;3.78;;;2.30;;
11608;SDS011;5860;52.018;8.536;2023-05-20T06:49:59;6.07;;;2.60;;
11608;SDS011;5860;52.018;8.536;2023-05-20T06:52:26;4.30;;;2.50;;
11608;SDS011;5860;52.018;8.536;2023-05-20T06:54:53;4.00;;;2.40;;
11608;SDS011;5860;52.018;8.536;2023-05-20T06:57:20;4.00;;;2.67;;
11608;SDS011;5860;52.018;8.536;2023-05-20T06:59:47;6.55;;;2.50;;
11608;SDS011;5860;52.018;8.536;2023-05-20T07:02:14;3.33;;;2.40;;
11608;SDS011;5860;52.018;8.536;2023-05-20T07:04:41;6.28;;;2.80;;
11608;SDS011;5860;52.018;8.536;2023-05-20T07:07:08;3.65;;;2.70;;
11608;SDS011;5860;52.018;8.536;2023-05-20T07:09:35;3.05;;;2.75;;
11608;SDS011;5860;52.018;8.536;2023-05-20T07:12:03;4.43;;;2.75;;
11608;SDS011;5860;52.018;8.536;2023-05-20T07:14:30;4.35;;;2.50;;
11608;SDS011;5860;52.018;8.536;2023-05-20T07:16:57;4.63;;;2.65;;
11608;SDS011;5860;52.018;8.536;2023-05-20T07:19:24;3.50;;;2.97;;
11608;SDS011;5860;52.018;8.536;2023-05-20T07:21:51;5.13;;;2.65;;
11608;SDS011;5860;52.018;8.536;2023-05-20T07:24:18;2.97;;;2.40;;
11608;SDS011;5860;52.018;8.536;2023-05-20T07:26:45;7.18;;;3.45;;
11608;SDS011;5860;52.018;8.536;2023-05-20T07:29:11;3.25;;;2.80;;
11608;SDS011;5860;52.018;8.536;2023-05-20T07:31:38;4.22;;;3.40;;
11608;SDS011;5860;52.018;8.536;2023-05-20T07:34:06;4.75;;;3.30;;
11608;SDS011;5860;52.018;8.536;2023-05-20T07:36:33;5.03;;;3.53;;
11608;SDS011;5860;52.018;8.536;2023-05-20T07:39:00;3.67;;;3.30;;
11608;SDS011;5860;52.018;8.536;2023-05-20T07:41:31;4.82;;;3.58;;
11608;SDS011;5860;52.018;8.536;2023-05-20T07:43:58;7.57;;;4.65;;
11608;SDS011;5860;52.018;8.536;2023-05-20T07:46:27;5.88;;;4.80;;
11608;SDS011;5860;52.018;8.536;2023-05-20T07:48:54;5.00;;;4.28;;
11608;SDS011;5860;52.018;8.536;2023-05-20T07:51:22;4.88;;;4.00;;
11608;SDS011;5860;52.018;8.536;2023-05-20T07:53:49;6.97;;;4.43;;
11608;SDS011;5860;52.018;8.536;2023-05-20T07:56:15;5.20;;;3.58;;
11608;SDS011;5860;52.018;8.536;2023-05-20T07:58:50;5.57;;;3.45;;
11608;SDS011;5860;52.018;8.536;2023-05-20T08:01:18;8.05;;;3.85;;
11608;SDS011;5860;52.018;8.536;2023-05-20T08:03:45;4.45;;;3.40;;
11608;SDS011;5860;52.018;8.536;2023-05-20T08:06:13;4.57;;;3.17;;
11608;SDS011;5860;52.018;8.536;2023-05-20T08:08:40;2.95;;;2.53;;
11608;SDS011;5860;52.018;8.536;2023-05-20T08:11:08;2.42;;;2.20;;
11608;SDS011;5860;52.018;8.536;2023-05-20T08:13:35;3.35;;;2.38;;
11608;SDS011;5860;52.018;8.536;2023-05-20T08:16:02;8.63;;;2.65;;
11608;SDS011;5860;52.018;8.536;2023-05-20T08:18:31;3.08;;;2.17;;
11608;SDS011;5860;52.018;8.536;2023-05-20T08:21:00;6.60;;;2.20;;
11608;SDS011;5860;52.018;8.536;2023-05-20T08:23:27;2.25;;;2.05;;
11608;SDS011;5860;52.018;8.536;2023-05-20T08:25:54;4.57;;;1.95;;
11608;SDS011;5860;52.018;8.536;2023-05-20T08:28:22;3.28;;;2.00;;
11608;SDS011;5860;52.018;8.536;2023-05-20T08:30:49;3.42;;;2.13;;
11608;SDS011;5860;52.018;8.536;2023-05-20T08:33:17;3.17;;;1.90;;
11608;SDS011;5860;52.018;8.536;2023-05-20T08:35:44;5.10;;;1.90;;
11608;SDS011;5860;52.018;8.536;2023-05-20T08:38:11;4.07;;;1.65;;
11608;SDS011;5860;52.018;8.536;2023-05-20T08:40:38;3.58;;;1.52;;
11608;SDS011;5860;52.018;8.536;2023-05-20T08:43:05;2.45;;;1.63;;
11608;SDS011;5860;52.018;8.536;2023-05-20T08:45:33;2.08;;;1.88;;
11608;SDS011;5860;52.018;8.536;2023-05-20T08:48:03;2.72;;;2.00;;
11608;SDS011;5860;52.018;8.536;2023-05-20T08:50:30;2.33;;;1.63;;
11608;SDS011;5860;52.018;8.536;2023-05-20T08:52:57;2.08;;;1.80;;
11608;SDS011;5860;52.018;8.536;2023-05-20T08:57:59;3.40;;;1.92;;
11608;SDS011;5860;52.018;8.536;2023-05-20T09:00:26;2.45;;;1.85;;
11608;SDS011;5860;52.018;8.536;2023-05-20T09:02:54;2.23;;;1.70;;
11608;SDS011;5860;52.018;8.536;2023-05-20T09:05:24;3.00;;;1.80;;
11608;SDS011;5860;52.018;8.536;2023-05-20T09:07:52;3.38;;;1.95;;
11608;SDS011;5860;52.018;8.536;2023-05-20T09:10:33;2.80;;;2.10;;
11608;SDS011;5860;52.018;8.536;2023-05-20T09:13:01;3.38;;;1.77;;
11608;SDS011;5860;52.018;8.536;2023-05-20T09:15:30;1.63;;;1.45;;
11608;SDS011;5860;52.018;8.536;2023-05-20T09:18:05;4.15;;;1.80;;
11608;SDS011;5860;52.018;8.536;2023-05-20T09:20:33;2.28;;;2.00;;
11608;SDS011;5860;52.018;8.536;2023-05-20T09:23:06;2.00;;;1.80;;
11608;SDS011;5860;52.018;8.536;2023-05-20T09:25:34;3.92;;;2.00;;
11608;SDS011;5860;52.018;8.536;2023-05-20T09:28:06;2.20;;;1.70;;
11608;SDS011;5860;52.018;8.536;2023-05-20T09:30:34;2.88;;;1.63;;
11608;SDS011;5860;52.018;8.536;2023-05-20T09:33:02;3.92;;;1.88;;
11608;SDS011;5860;52.018;8.536;2023-05-20T09:35:33;2.35;;;1.90;;
11608;SDS011;5860;52.018;8.536;2023-05-20T09:38:03;3.60;;;1.73;;
11608;SDS011;5860;52.018;8.536;2023-05-20T09:40:33;2.55;;;1.80;;
11608;SDS011;5860;52.018;8.536;2023-05-20T09:43:06;2.78;;;1.95;;
11608;SDS011;5860;52.018;8.536;2023-05-20T09:45:34;3.00;;;1.80;;
11608;SDS011;5860;52.018;8.536;2023-05-20T09:48:01;2.55;;;1.60;;
11608;SDS011;5860;52.018;8.536;2023-05-20T09:50:31;2.42;;;1.95;;
11608;SDS011;5860;52.018;8.536;2023-05-20T09:53:00;4.28;;;1.90;;
11608;SDS011;5860;52.018;8.536;2023-05-20T09:55:29;2.42;;;2.22;;
11608;SDS011;5860;52.018;8.536;2023-05-20T09:57:57;2.70;;;2.10;;
11608;SDS011;5860;52.018;8.536;2023-05-20T10:00:27;2.08;;;1.80;;
11608;SDS011;5860;52.018;8.536;2023-05-20T10:02:55;2.42;;;2.08;;
11608;SDS011;5860;52.018;8.536;2023-05-20T10:05:29;3.30;;;2.38;;
11608;SDS011;5860;52.018;8.536;2023-05-20T10:13:17;3.17;;;2.00;;
11608;SDS011;5860;52.018;8.536;2023-05-20T10:16:12;3.92;;;2.70;;
11608;SDS011;5860;52.018;8.536;2023-05-20T10:21:26;2.88;;;2.60;;
11608;SDS011;5860;52.018;8.536;2023-05-20T10:23:53;2.63;;;2.40;;
11608;SDS011;5860;52.018;8.536;2023-05-20T10:26:35;2.55;;;2.35;;
11608;SDS011;5860;52.018;8.536;2023-05-20T10:29:16;3.55;;;2.40;;
11608;SDS011;5860;52.018;8.536;2023-05-20T10:31:48;2.92;;;2.38;;
11608;SDS011;5860;52.018;8.536;2023-05-20T10:34:20;3.63;;;2.60;;
11608;SDS011;5860;52.018;8.536;2023-05-20T10:39:25;5.45;;;2.78;;
11608;SDS011;5860;52.018;8.536;2023-05-20T10:42:08;3.20;;;2.60;;
11608;SDS011;5860;52.018;8.536;2023-05-20T10:44:43;4.10;;;2.60;;
11608;SDS011;5860;52.018;8.536;2023-05-20T10:47:11;2.83;;;2.53;;
11608;SDS011;5860;52.018;8.536;2023-05-20T10:49:45;5.13;;;2.87;;
11608;SDS011;5860;52.018;8.536;2023-05-20T10:52:12;3.57;;;3.00;;
11608;SDS011;5860;52.018;8.536;2023-05-20T10:54:42;5.77;;;2.97;;
11608;SDS011;5860;52.018;8.536;2023-05-20T10:57:16;4.93;;;2.93;;
11608;SDS011;5860;52.018;8.536;2023-05-20T10:59:43;2.87;;;2.40;;
11608;SDS011;5860;52.018;8.536;2023-05-20T11:02:14;3.43;;;2.87;;
11608;SDS011;5860;52.018;8.536;2023-05-20T11:04:42;3.77;;;3.00;;
11608;SDS011;5860;52.018;8.536;2023-05-20T11:07:10;4.63;;;3.08;;
11608;SDS011;5860;52.018;8.536;2023-05-20T11:09:37;4.38;;;3.05;;
11608;SDS011;5860;52.018;8.536;2023-05-20T11:12:05;4.27;;;3.20;;
11608;SDS011;5860;52.018;8.536;2023-05-20T11:14:33;5.43;;;3.10;;
11608;SDS011;5860;52.018;8.536;2023-05-20T11:17:01;4.73;;;3.40;;
11608;SDS011;5860;52.018;8.536;2023-05-20T11:19:28;4.13;;;3.28;;
11608;SDS011;5860;52.018;8.536;2023-05-20T11:21:56;4.13;;;3.00;;
11608;SDS011;5860;52.018;8.536;2023-05-20T11:24:24;3.63;;;3.03;;
11608;SDS011;5860;52.018;8.536;2023-05-20T11:26:53;5.70;;;3.17;;
11608;SDS011;5860;52.018;8.536;2023-05-20T11:29:21;3.90;;;2.50;;
11608;SDS011;5860;52.018;8.536;2023-05-20T11:31:49;4.13;;;3.00;;
11608;SDS011;5860;52.018;8.536;2023-05-20T11:34:21;4.63;;;3.63;;
11608;SDS011;5860;52.018;8.536;2023-05-20T11:36:55;3.70;;;2.80;;
11608;SDS011;5860;52.018;8.536;2023-05-20T11:39:24;4.23;;;2.77;;
11608;SDS011;5860;52.018;8.536;2023-05-20T11:41:56;3.30;;;3.00;;
11608;SDS011;5860;52.018;8.536;2023-05-20T11:44:24;4.03;;;3.03;;
11608;SDS011;5860;52.018;8.536;2023-05-20T11:46:57;4.03;;;2.93;;
11608;SDS011;5860;52.018;8.536;2023-05-20T11:49:26;4.33;;;2.53;;
11608;SDS011;5860;52.018;8.536;2023-05-20T11:51:53;3.87;;;2.30;;
11608;SDS011;5860;52.018;8.536;2023-05-20T11:54:21;5.60;;;3.13;;
11608;SDS011;5860;52.018;8.536;2023-05-20T11:56:49;4.10;;;3.00;;
11608;SDS011;5860;52.018;8.536;2023-05-20T11:59:16;4.57;;;3.10;;
11608;SDS011;5860;52.018;8.536;2023-05-20T12:01:43;3.30;;;2.90;;
11608;SDS011;5860;52.018;8.536;2023-05-20T12:04:11;3.70;;;2.97;;
11608;SDS011;5860;52.018;8.536;2023-05-20T12:06:42;3.30;;;3.00;;
11608;SDS011;5860;52.018;8.536;2023-05-20T12:09:09;3.33;;;2.80;;
11608;SDS011;5860;52.018;8.536;2023-05-20T12:11:37;3.63;;;2.73;;
11608;SDS011;5860;52.018;8.536;2023-05-20T12:14:06;4.43;;;3.30;;
11608;SDS011;5860;52.018;8.536;2023-05-20T12:16:35;3.07;;;2.70;;
11608;SDS011;5860;52.018;8.536;2023-05-20T12:19:03;5.37;;;3.13;;
11608;SDS011;5860;52.018;8.536;2023-05-20T12:21:30;3.00;;;2.47;;
11608;SDS011;5860;52.018;8.536;2023-05-20T12:23:58;3.27;;;2.97;;
11608;SDS011;5860;52.018;8.536;2023-05-20T12:26:25;2.80;;;2.50;;
11608;SDS011;5860;52.018;8.536;2023-05-20T12:28:53;4.43;;;2.87;;
11608;SDS011;5860;52.018;8.536;2023-05-20T12:31:21;4.70;;;2.47;;
11608;SDS011;5860;52.018;8.536;2023-05-20T12:33:48;2.50;;;2.30;;
11608;SDS011;5860;52.018;8.536;2023-05-20T12:36:16;2.73;;;2.23;;
11608;SDS011;5860;52.018;8.536;2023-05-20T12:38:44;3.53;;;2.20;;
11608;SDS011;5860;52.018;8.536;2023-05-20T12:41:12;5.40;;;2.33;;
11608;SDS011;5860;52.018;8.536;2023-05-20T12:43:39;7.27;;;2.33;;
11608;SDS011;5860;52.018;8.536;2023-05-20T12:46:06;3.33;;;2.17;;
11608;SDS011;5860;52.018;8.536;2023-05-20T12:48:34;3.40;;;2.00;;
11608;SDS011;5860;52.018;8.536;2023-05-20T12:51:02;3.30;;;2.30;;
11608;SDS011;5860;52.018;8.536;2023-05-20T12:53:30;4.07;;;2.50;;
11608;SDS011;5860;52.018;8.536;2023-05-20T12:55:57;3.00;;;2.13;;
11608;SDS011;5860;52.018;8.536;2023-05-20T12:58:24;3.10;;;2.40;;
11608;SDS011;5860;52.018;8.536;2023-05-20T13:00:51;4.80;;;2.40;;
11608;SDS011;5860;52.018;8.536;2023-05-20T13:03:18;3.43;;;2.30;;
11608;SDS011;5860;52.018;8.536;2023-05-20T13:05:45;2.63;;;2.20;;
11608;SDS011;5860;52.018;8.536;2023-05-20T13:08:12;2.57;;;2.33;;
11608;SDS011;5860;52.018;8.536;2023-05-20T13:10:40;2.80;;;2.10;;
11608;SDS011;5860;52.018;8.536;2023-05-20T13:13:07;2.50;;;2.30;;
11608;SDS011;5860;52.018;8.536;2023-05-20T13:15:34;3.13;;;2.23;;
11608;SDS011;5860;52.018;8.536;2023-05-20T13:18:02;3.08;;;2.15;;
11608;SDS011;5860;52.018;8.536;2023-05-20T13:20:31;2.80;;;2.13;;
11608;SDS011;5860;52.018;8.536;2023-05-20T13:22:58;2.80;;;2.50;;
11608;SDS011;5860;52.018;8.536;2023-05-20T13:25:25;2.97;;;2.67;;
11608;SDS011;5860;52.018;8.536;2023-05-20T13:27:53;2.70;;;2.40;;
11608;SDS011;5860;52.018;8.536;2023-05-20T13:30:21;2.47;;;2.27;;
11608;SDS011;5860;52.018;8.536;2023-05-20T13:32:48;3.33;;;2.57;;
11608;SDS011;5860;52.018;8.536;2023-05-20T13:35:15;2.83;;;2.53;;
11608;SDS011;5860;52.018;8.536;2023-05-20T13:37:42;3.60;;;2.40;;
11608;SDS011;5860;52.018;8.536;2023-05-20T13:40:10;2.67;;;2.47;;
11608;SDS011;5860;52.018;8.536;2023-05-20T13:42:37;2.67;;;2.23;;
11608;SDS011;5860;52.018;8.536;2023-05-20T13:45:05;4.67;;;2.87;;
11608;SDS011;5860;52.018;8.536;2023-05-20T13:47:32;2.83;;;2.53;;
11608;SDS011;5860;52.018;8.536;2023-05-20T13:50:00;2.80;;;2.10;;
11608;SDS011;5860;52.018;8.536;2023-05-20T13:52:28;4.63;;;2.20;;
11608;SDS011;5860;52.018;8.536;2023-05-20T13:54:56;3.72;;;2.60;;
11608;SDS011;5860;52.018;8.536;2023-05-20T13:57:23;3.83;;;2.50;;
11608;SDS011;5860;52.018;8.536;2023-05-20T13:59:52;2.50;;;2.30;;
11608;SDS011;5860;52.018;8.536;2023-05-20T14:02:20;2.60;;;2.40;;
11608;SDS011;5860;52.018;8.536;2023-05-20T14:04:50;4.00;;;2.50;;
11608;SDS011;5860;52.018;8.536;2023-05-20T14:07:18;5.10;;;2.70;;
11608;SDS011;5860;52.018;8.536;2023-05-20T14:09:47;3.43;;;3.00;;
11608;SDS011;5860;52.018;8.536;2023-05-20T14:12:15;4.07;;;2.70;;
11608;SDS011;5860;52.018;8.536;2023-05-20T14:14:43;3.10;;;2.80;;
11608;SDS011;5860;52.018;8.536;2023-05-20T14:17:12;2.97;;;2.40;;
11608;SDS011;5860;52.018;8.536;2023-05-20T14:19:40;3.57;;;2.63;;
11608;SDS011;5860;52.018;8.536;2023-05-20T14:22:08;4.33;;;2.80;;
11608;SDS011;5860;52.018;8.536;2023-05-20T14:24:36;2.37;;;2.17;;
11608;SDS011;5860;52.018;8.536;2023-05-20T14:27:03;3.87;;;2.93;;
11608;SDS011;5860;52.018;8.536;2023-05-20T14:29:30;3.63;;;2.63;;
11608;SDS011;5860;52.018;8.536;2023-05-20T14:31:58;3.00;;;2.37;;
11608;SDS011;5860;52.018;8.536;2023-05-20T14:34:26;7.43;;;3.00;;
11608;SDS011;5860;52.018;8.536;2023-05-20T14:36:53;4.27;;;3.10;;
11608;SDS011;5860;52.018;8.536;2023-05-20T14:39:20;5.60;;;2.80;;
11608;SDS011;5860;52.018;8.536;2023-05-20T14:41:47;4.60;;;3.40;;
11608;SDS011;5860;52.018;8.536;2023-05-20T14:44:14;5.13;;;2.87;;
11608;SDS011;5860;52.018;8.536;2023-05-20T14:46:41;3.27;;;2.73;;
11608;SDS011;5860;52.018;8.536;2023-05-20T14:49:08;4.70;;;3.00;;
11608;SDS011;5860;52.018;8.536;2023-05-20T14:51:35;3.80;;;3.10;;
11608;SDS011;5860;52.018;8.536;2023-05-20T14:54:02;6.90;;;3.67;;
11608;SDS011;5860;52.018;8.536;2023-05-20T14:56:30;4.00;;;3.40;;
11608;SDS011;5860;52.018;8.536;2023-05-20T14:58:56;6.30;;;3.40;;
11608;SDS011;5860;52.018;8.536;2023-05-20T15:01:23;3.27;;;2.97;;
11608;SDS011;5860;52.018;8.536;2023-05-20T15:03:50;4.20;;;3.37;;
11608;SDS011;5860;52.018;8.536;2023-05-20T15:06:17;4.47;;;3.47;;
11608;SDS011;5860;52.018;8.536;2023-05-20T15:08:44;5.27;;;3.80;;
11608;SDS011;5860;52.018;8.536;2023-05-20T15:11:11;5.77;;;3.97;;
11608;SDS011;5860;52.018;8.536;2023-05-20T15:13:38;6.00;;;3.50;;
11608;SDS011;5860;52.018;8.536;2023-05-20T15:16:06;5.13;;;4.13;;
11608;SDS011;5860;52.018;8.536;2023-05-20T15:18:33;5.43;;;4.00;;
11608;SDS011;5860;52.018;8.536;2023-05-20T15:21:00;4.97;;;4.43;;
11608;SDS011;5860;52.018;8.536;2023-05-20T15:23:27;5.13;;;4.30;;